sensor_id;sensor_type;location;lat;lon;timestamp;P1;durP1;ratioP1;P2;durP2;ratioP2
70150;SDS011;57517;43.562;19.540;2023-05-07T00:01:52;8.93;;;6.28;;
70150;SDS011;57517;43.562;19.540;2023-05-07T00:04:18;10.82;;;6.47;;
70150;SDS011;57517;43.562;19.540;2023-05-07T00:06:44;8.38;;;5.82;;
70150;SDS011;57517;43.562;19.540;2023-05-07T00:09:10;6.55;;;5.05;;
70150;SDS011;57517;43.562;19.540;2023-05-07T00:11:36;8.52;;;5.47;;
70150;SDS011;57517;43.562;19.540;2023-05-07T00:14:01;9.23;;;5.65;;
70150;SDS011;57517;43.562;19.540;2023-05-07T00:16:27;7.03;;;5.40;;
70150;SDS011;57517;43.562;19.540;2023-05-07T00:18:53;9.80;;;6.20;;
70150;SDS011;57517;43.562;19.540;2023-05-07T00:21:19;8.15;;;5.30;;
70150;SDS011;57517;43.562;19.540;2023-05-07T00:23:46;7.07;;;5.20;;
70150;SDS011;57517;43.562;19.540;2023-05-07T00:26:12;8.45;;;5.53;;
70150;SDS011;57517;43.562;19.540;2023-05-07T00:28:38;6.95;;;4.82;;
70150;SDS011;57517;43.562;19.540;2023-05-07T00:31:04;8.15;;;5.90;;
70150;SDS011;57517;43.562;19.540;2023-05-07T00:33:30;7.18;;;5.43;;
70150;SDS011;57517;43.562;19.540;2023-05-07T00:35:55;12.77;;;6.00;;
70150;SDS011;57517;43.562;19.540;2023-05-07T00:38:21;9.23;;;6.10;;
70150;SDS011;57517;43.562;19.540;2023-05-07T00:40:47;6.22;;;5.05;;
70150;SDS011;57517;43.562;19.540;2023-05-07T00:43:13;8.27;;;5.43;;
70150;SDS011;57517;43.562;19.540;2023-05-07T00:45:38;8.45;;;6.03;;
70150;SDS011;57517;43.562;19.540;2023-05-07T00:48:04;10.10;;;6.65;;
70150;SDS011;57517;43.562;19.540;2023-05-07T00:50:30;8.73;;;5.85;;
70150;SDS011;57517;43.562;19.540;2023-05-07T00:52:57;8.50;;;6.00;;
70150;SDS011;57517;43.562;19.540;2023-05-07T00:55:24;9.50;;;7.90;;
70150;SDS011;57517;43.562;19.540;2023-05-07T00:57:51;9.50;;;6.45;;
70150;SDS011;57517;43.562;19.540;2023-05-07T01:00:17;10.20;;;7.03;;
70150;SDS011;57517;43.562;19.540;2023-05-07T01:02:43;7.88;;;5.88;;
70150;SDS011;57517;43.562;19.540;2023-05-07T01:05:12;9.05;;;5.88;;
70150;SDS011;57517;43.562;19.540;2023-05-07T01:07:44;9.20;;;6.18;;
70150;SDS011;57517;43.562;19.540;2023-05-07T01:10:10;9.32;;;5.65;;
70150;SDS011;57517;43.562;19.540;2023-05-07T01:12:37;7.72;;;6.03;;
70150;SDS011;57517;43.562;19.540;2023-05-07T01:15:05;8.82;;;6.20;;
70150;SDS011;57517;43.562;19.540;2023-05-07T01:17:33;10.05;;;6.65;;
70150;SDS011;57517;43.562;19.540;2023-05-07T01:20:04;11.57;;;6.38;;
70150;SDS011;57517;43.562;19.540;2023-05-07T01:22:32;9.13;;;5.45;;
70150;SDS011;57517;43.562;19.540;2023-05-07T01:25:01;8.10;;;5.50;;
70150;SDS011;57517;43.562;19.540;2023-05-07T01:27:31;8.30;;;5.78;;
70150;SDS011;57517;43.562;19.540;2023-05-07T01:29:58;10.23;;;5.88;;
70150;SDS011;57517;43.562;19.540;2023-05-07T01:35:09;6.97;;;5.55;;
70150;SDS011;57517;43.562;19.540;2023-05-07T01:37:37;9.43;;;6.30;;
70150;SDS011;57517;43.562;19.540;2023-05-07T01:40:04;9.43;;;6.72;;
70150;SDS011;57517;43.562;19.540;2023-05-07T01:42:32;9.60;;;6.60;;
70150;SDS011;57517;43.562;19.540;2023-05-07T01:44:58;8.55;;;6.05;;
70150;SDS011;57517;43.562;19.540;2023-05-07T01:47:24;9.32;;;6.70;;
70150;SDS011;57517;43.562;19.540;2023-05-07T01:49:50;8.60;;;6.15;;
70150;SDS011;57517;43.562;19.540;2023-05-07T01:52:17;7.60;;;5.70;;
70150;SDS011;57517;43.562;19.540;2023-05-07T01:54:42;8.38;;;5.90;;
70150;SDS011;57517;43.562;19.540;2023-05-07T01:57:08;8.10;;;5.60;;
70150;SDS011;57517;43.562;19.540;2023-05-07T01:59:34;8.00;;;6.00;;
70150;SDS011;57517;43.562;19.540;2023-05-07T02:02:00;7.35;;;5.35;;
70150;SDS011;57517;43.562;19.540;2023-05-07T02:04:26;8.93;;;5.70;;
70150;SDS011;57517;43.562;19.540;2023-05-07T02:06:51;10.52;;;6.38;;
70150;SDS011;57517;43.562;19.540;2023-05-07T02:09:17;7.30;;;5.38;;
70150;SDS011;57517;43.562;19.540;2023-05-07T02:11:44;8.82;;;5.80;;
70150;SDS011;57517;43.562;19.540;2023-05-07T02:14:10;7.78;;;5.45;;
70150;SDS011;57517;43.562;19.540;2023-05-07T02:16:36;6.55;;;5.38;;
70150;SDS011;57517;43.562;19.540;2023-05-07T02:19:01;10.13;;;6.53;;
70150;SDS011;57517;43.562;19.540;2023-05-07T02:21:27;6.38;;;5.43;;
70150;SDS011;57517;43.562;19.540;2023-05-07T02:23:53;8.55;;;5.95;;
70150;SDS011;57517;43.562;19.540;2023-05-07T02:26:19;7.65;;;5.90;;
70150;SDS011;57517;43.562;19.540;2023-05-07T02:28:46;8.85;;;5.93;;
70150;SDS011;57517;43.562;19.540;2023-05-07T02:31:12;8.57;;;5.82;;
70150;SDS011;57517;43.562;19.540;2023-05-07T02:33:38;7.95;;;5.63;;
70150;SDS011;57517;43.562;19.540;2023-05-07T02:36:10;8.02;;;5.90;;
70150;SDS011;57517;43.562;19.540;2023-05-07T02:38:37;8.48;;;6.00;;
70150;SDS011;57517;43.562;19.540;2023-05-07T02:41:03;9.65;;;6.18;;
70150;SDS011;57517;43.562;19.540;2023-05-07T02:43:29;7.97;;;5.70;;
70150;SDS011;57517;43.562;19.540;2023-05-07T02:46:02;7.65;;;5.68;;
70150;SDS011;57517;43.562;19.540;2023-05-07T02:48:29;9.20;;;5.95;;
70150;SDS011;57517;43.562;19.540;2023-05-07T02:50:54;10.50;;;7.72;;
70150;SDS011;57517;43.562;19.540;2023-05-07T02:53:20;7.93;;;5.63;;
70150;SDS011;57517;43.562;19.540;2023-05-07T02:55:46;7.40;;;5.80;;
70150;SDS011;57517;43.562;19.540;2023-05-07T02:58:12;7.93;;;6.22;;
70150;SDS011;57517;43.562;19.540;2023-05-07T03:00:37;7.00;;;5.40;;
70150;SDS011;57517;43.562;19.540;2023-05-07T03:03:03;8.57;;;5.85;;
70150;SDS011;57517;43.562;19.540;2023-05-07T03:05:29;7.50;;;5.68;;
70150;SDS011;57517;43.562;19.540;2023-05-07T03:07:55;7.70;;;5.88;;
70150;SDS011;57517;43.562;19.540;2023-05-07T03:10:21;8.60;;;6.50;;
70150;SDS011;57517;43.562;19.540;2023-05-07T03:12:46;8.73;;;5.85;;
70150;SDS011;57517;43.562;19.540;2023-05-07T03:15:12;7.35;;;6.03;;
70150;SDS011;57517;43.562;19.540;2023-05-07T03:17:38;9.48;;;6.47;;
70150;SDS011;57517;43.562;19.540;2023-05-07T03:20:04;8.93;;;6.22;;
70150;SDS011;57517;43.562;19.540;2023-05-07T03:22:31;8.32;;;5.75;;
70150;SDS011;57517;43.562;19.540;2023-05-07T03:24:56;9.40;;;6.07;;
70150;SDS011;57517;43.562;19.540;2023-05-07T03:27:22;9.55;;;7.22;;
70150;SDS011;57517;43.562;19.540;2023-05-07T03:29:48;8.77;;;6.55;;
70150;SDS011;57517;43.562;19.540;2023-05-07T03:32:14;8.82;;;6.45;;
70150;SDS011;57517;43.562;19.540;2023-05-07T03:34:39;9.90;;;6.30;;
70150;SDS011;57517;43.562;19.540;2023-05-07T03:37:05;8.85;;;5.88;;
70150;SDS011;57517;43.562;19.540;2023-05-07T03:39:31;8.60;;;6.30;;
70150;SDS011;57517;43.562;19.540;2023-05-07T03:41:57;10.45;;;6.55;;
70150;SDS011;57517;43.562;19.540;2023-05-07T03:44:23;10.60;;;6.72;;
70150;SDS011;57517;43.562;19.540;2023-05-07T03:46:49;7.45;;;5.93;;
70150;SDS011;57517;43.562;19.540;2023-05-07T03:49:15;8.68;;;6.68;;
70150;SDS011;57517;43.562;19.540;2023-05-07T03:51:40;8.68;;;6.38;;
70150;SDS011;57517;43.562;19.540;2023-05-07T03:54:07;8.95;;;6.40;;
70150;SDS011;57517;43.562;19.540;2023-05-07T03:56:32;9.77;;;6.97;;
70150;SDS011;57517;43.562;19.540;2023-05-07T03:58:59;9.15;;;6.85;;
70150;SDS011;57517;43.562;19.540;2023-05-07T04:01:25;9.07;;;6.60;;
70150;SDS011;57517;43.562;19.540;2023-05-07T04:03:51;8.30;;;6.40;;
70150;SDS011;57517;43.562;19.540;2023-05-07T04:06:17;8.00;;;5.75;;
70150;SDS011;57517;43.562;19.540;2023-05-07T04:08:43;9.00;;;7.30;;
70150;SDS011;57517;43.562;19.540;2023-05-07T04:11:08;10.95;;;6.20;;
70150;SDS011;57517;43.562;19.540;2023-05-07T04:13:34;8.18;;;5.93;;
70150;SDS011;57517;43.562;19.540;2023-05-07T04:16:01;8.50;;;6.47;;
70150;SDS011;57517;43.562;19.540;2023-05-07T04:18:28;8.25;;;6.22;;
70150;SDS011;57517;43.562;19.540;2023-05-07T04:20:54;8.48;;;6.38;;
70150;SDS011;57517;43.562;19.540;2023-05-07T04:23:20;10.05;;;6.93;;
70150;SDS011;57517;43.562;19.540;2023-05-07T04:25:46;13.30;;;8.48;;
70150;SDS011;57517;43.562;19.540;2023-05-07T04:28:12;11.20;;;9.27;;
70150;SDS011;57517;43.562;19.540;2023-05-07T04:30:38;11.35;;;9.20;;
70150;SDS011;57517;43.562;19.540;2023-05-07T04:33:04;14.70;;;9.70;;
70150;SDS011;57517;43.562;19.540;2023-05-07T04:35:31;14.43;;;9.23;;
70150;SDS011;57517;43.562;19.540;2023-05-07T04:37:57;11.23;;;7.53;;
70150;SDS011;57517;43.562;19.540;2023-05-07T04:40:23;10.75;;;7.35;;
70150;SDS011;57517;43.562;19.540;2023-05-07T04:42:49;10.55;;;7.90;;
70150;SDS011;57517;43.562;19.540;2023-05-07T04:45:16;15.80;;;8.30;;
70150;SDS011;57517;43.562;19.540;2023-05-07T04:47:42;9.20;;;7.25;;
70150;SDS011;57517;43.562;19.540;2023-05-07T04:50:08;9.82;;;7.25;;
70150;SDS011;57517;43.562;19.540;2023-05-07T04:52:34;13.88;;;10.73;;
70150;SDS011;57517;43.562;19.540;2023-05-07T04:55:00;16.05;;;9.63;;
70150;SDS011;57517;43.562;19.540;2023-05-07T04:57:26;20.20;;;14.43;;
70150;SDS011;57517;43.562;19.540;2023-05-07T04:59:52;21.45;;;16.55;;
70150;SDS011;57517;43.562;19.540;2023-05-07T05:02:18;21.05;;;16.98;;
70150;SDS011;57517;43.562;19.540;2023-05-07T05:04:44;14.90;;;11.15;;
70150;SDS011;57517;43.562;19.540;2023-05-07T05:07:10;17.33;;;12.20;;
70150;SDS011;57517;43.562;19.540;2023-05-07T05:09:36;16.60;;;9.57;;
70150;SDS011;57517;43.562;19.540;2023-05-07T05:12:02;13.70;;;11.57;;
70150;SDS011;57517;43.562;19.540;2023-05-07T05:14:28;11.25;;;8.73;;
70150;SDS011;57517;43.562;19.540;2023-05-07T05:16:54;17.42;;;11.07;;
70150;SDS011;57517;43.562;19.540;2023-05-07T05:19:20;13.77;;;11.00;;
70150;SDS011;57517;43.562;19.540;2023-05-07T05:21:46;16.08;;;12.55;;
70150;SDS011;57517;43.562;19.540;2023-05-07T05:24:12;12.32;;;11.00;;
70150;SDS011;57517;43.562;19.540;2023-05-07T05:26:37;11.65;;;10.52;;
70150;SDS011;57517;43.562;19.540;2023-05-07T05:29:03;11.95;;;10.07;;
70150;SDS011;57517;43.562;19.540;2023-05-07T05:31:29;11.55;;;10.35;;
70150;SDS011;57517;43.562;19.540;2023-05-07T05:33:55;12.52;;;11.30;;
70150;SDS011;57517;43.562;19.540;2023-05-07T05:36:20;12.75;;;11.48;;
70150;SDS011;57517;43.562;19.540;2023-05-07T05:38:46;10.35;;;9.43;;
70150;SDS011;57517;43.562;19.540;2023-05-07T05:41:12;10.32;;;9.38;;
70150;SDS011;57517;43.562;19.540;2023-05-07T05:43:38;10.40;;;9.40;;
70150;SDS011;57517;43.562;19.540;2023-05-07T05:46:04;19.63;;;9.68;;
70150;SDS011;57517;43.562;19.540;2023-05-07T05:48:30;13.80;;;10.85;;
70150;SDS011;57517;43.562;19.540;2023-05-07T05:50:56;12.50;;;11.38;;
70150;SDS011;57517;43.562;19.540;2023-05-07T05:53:21;11.45;;;10.43;;
70150;SDS011;57517;43.562;19.540;2023-05-07T05:55:47;10.48;;;9.68;;
70150;SDS011;57517;43.562;19.540;2023-05-07T05:58:14;10.70;;;9.80;;
70150;SDS011;57517;43.562;19.540;2023-05-07T06:00:40;11.73;;;10.73;;
70150;SDS011;57517;43.562;19.540;2023-05-07T06:03:06;11.00;;;10.10;;
70150;SDS011;57517;43.562;19.540;2023-05-07T06:05:31;11.80;;;10.88;;
70150;SDS011;57517;43.562;19.540;2023-05-07T06:07:57;10.75;;;9.85;;
70150;SDS011;57517;43.562;19.540;2023-05-07T06:10:23;11.30;;;10.45;;
70150;SDS011;57517;43.562;19.540;2023-05-07T06:12:49;10.85;;;10.05;;
70150;SDS011;57517;43.562;19.540;2023-05-07T06:15:15;11.68;;;10.63;;
70150;SDS011;57517;43.562;19.540;2023-05-07T06:17:40;10.50;;;9.65;;
70150;SDS011;57517;43.562;19.540;2023-05-07T06:20:06;10.98;;;10.18;;
70150;SDS011;57517;43.562;19.540;2023-05-07T06:22:33;10.93;;;10.07;;
70150;SDS011;57517;43.562;19.540;2023-05-07T06:24:58;11.13;;;10.27;;
70150;SDS011;57517;43.562;19.540;2023-05-07T06:27:24;12.88;;;11.77;;
70150;SDS011;57517;43.562;19.540;2023-05-07T06:29:50;12.15;;;11.18;;
70150;SDS011;57517;43.562;19.540;2023-05-07T06:32:16;13.73;;;12.60;;
70150;SDS011;57517;43.562;19.540;2023-05-07T06:34:42;12.27;;;10.82;;
70150;SDS011;57517;43.562;19.540;2023-05-07T06:37:08;13.07;;;12.07;;
70150;SDS011;57517;43.562;19.540;2023-05-07T06:39:34;12.70;;;11.63;;
70150;SDS011;57517;43.562;19.540;2023-05-07T06:42:00;12.13;;;11.18;;
70150;SDS011;57517;43.562;19.540;2023-05-07T06:44:27;12.13;;;11.13;;
70150;SDS011;57517;43.562;19.540;2023-05-07T06:46:53;13.13;;;12.02;;
70150;SDS011;57517;43.562;19.540;2023-05-07T06:49:18;13.10;;;12.10;;
70150;SDS011;57517;43.562;19.540;2023-05-07T06:51:44;10.98;;;9.98;;
70150;SDS011;57517;43.562;19.540;2023-05-07T06:54:10;11.60;;;10.63;;
70150;SDS011;57517;43.562;19.540;2023-05-07T06:56:36;12.80;;;11.75;;
70150;SDS011;57517;43.562;19.540;2023-05-07T06:59:02;10.65;;;9.75;;
70150;SDS011;57517;43.562;19.540;2023-05-07T07:01:28;10.57;;;9.77;;
70150;SDS011;57517;43.562;19.540;2023-05-07T07:03:54;10.15;;;9.45;;
70150;SDS011;57517;43.562;19.540;2023-05-07T07:06:20;10.05;;;9.25;;
70150;SDS011;57517;43.562;19.540;2023-05-07T07:08:46;11.25;;;10.27;;
70150;SDS011;57517;43.562;19.540;2023-05-07T07:11:11;10.40;;;9.50;;
70150;SDS011;57517;43.562;19.540;2023-05-07T07:13:37;11.70;;;10.75;;
70150;SDS011;57517;43.562;19.540;2023-05-07T07:16:03;12.02;;;10.93;;
70150;SDS011;57517;43.562;19.540;2023-05-07T07:18:29;12.18;;;11.20;;
70150;SDS011;57517;43.562;19.540;2023-05-07T07:20:55;11.55;;;10.55;;
70150;SDS011;57517;43.562;19.540;2023-05-07T07:23:21;11.77;;;10.88;;
70150;SDS011;57517;43.562;19.540;2023-05-07T07:25:46;11.25;;;10.38;;
70150;SDS011;57517;43.562;19.540;2023-05-07T07:28:12;9.10;;;8.40;;
70150;SDS011;57517;43.562;19.540;2023-05-07T07:30:38;9.00;;;8.38;;
70150;SDS011;57517;43.562;19.540;2023-05-07T07:33:04;9.90;;;9.00;;
70150;SDS011;57517;43.562;19.540;2023-05-07T07:35:33;8.90;;;8.20;;
70150;SDS011;57517;43.562;19.540;2023-05-07T07:37:59;10.95;;;9.95;;
70150;SDS011;57517;43.562;19.540;2023-05-07T07:40:26;13.75;;;12.35;;
70150;SDS011;57517;43.562;19.540;2023-05-07T07:42:53;11.05;;;10.15;;
70150;SDS011;57517;43.562;19.540;2023-05-07T07:45:19;10.32;;;9.52;;
70150;SDS011;57517;43.562;19.540;2023-05-07T07:47:45;9.75;;;9.00;;
70150;SDS011;57517;43.562;19.540;2023-05-07T07:50:12;11.02;;;9.90;;
70150;SDS011;57517;43.562;19.540;2023-05-07T07:52:38;11.10;;;10.05;;
70150;SDS011;57517;43.562;19.540;2023-05-07T07:55:04;11.07;;;10.07;;
70150;SDS011;57517;43.562;19.540;2023-05-07T07:57:30;20.27;;;18.20;;
70150;SDS011;57517;43.562;19.540;2023-05-07T07:59:56;35.67;;;29.77;;
70150;SDS011;57517;43.562;19.540;2023-05-07T08:02:23;19.83;;;17.83;;
70150;SDS011;57517;43.562;19.540;2023-05-07T08:04:49;8.25;;;7.55;;
70150;SDS011;57517;43.562;19.540;2023-05-07T08:07:15;8.38;;;7.68;;
70150;SDS011;57517;43.562;19.540;2023-05-07T08:09:43;8.77;;;8.07;;
70150;SDS011;57517;43.562;19.540;2023-05-07T08:12:09;10.95;;;10.05;;
70150;SDS011;57517;43.562;19.540;2023-05-07T08:14:35;9.98;;;9.07;;
70150;SDS011;57517;43.562;19.540;2023-05-07T08:17:02;8.68;;;7.80;;
70150;SDS011;57517;43.562;19.540;2023-05-07T08:19:28;11.60;;;10.40;;
70150;SDS011;57517;43.562;19.540;2023-05-07T08:21:53;9.70;;;8.80;;
70150;SDS011;57517;43.562;19.540;2023-05-07T08:24:20;16.75;;;13.95;;
70150;SDS011;57517;43.562;19.540;2023-05-07T08:26:46;17.45;;;15.07;;
70150;SDS011;57517;43.562;19.540;2023-05-07T08:29:12;12.13;;;9.80;;
70150;SDS011;57517;43.562;19.540;2023-05-07T08:31:38;14.02;;;11.90;;
70150;SDS011;57517;43.562;19.540;2023-05-07T08:34:04;12.95;;;11.65;;
70150;SDS011;57517;43.562;19.540;2023-05-07T08:36:31;11.80;;;9.70;;
70150;SDS011;57517;43.562;19.540;2023-05-07T08:38:57;7.75;;;6.28;;
70150;SDS011;57517;43.562;19.540;2023-05-07T08:41:23;6.97;;;5.57;;
70150;SDS011;57517;43.562;19.540;2023-05-07T08:43:50;6.30;;;5.13;;
70150;SDS011;57517;43.562;19.540;2023-05-07T08:46:17;6.88;;;5.25;;
70150;SDS011;57517;43.562;19.540;2023-05-07T08:48:44;6.35;;;5.00;;
70150;SDS011;57517;43.562;19.540;2023-05-07T08:51:13;5.95;;;5.32;;
70150;SDS011;57517;43.562;19.540;2023-05-07T08:53:41;6.15;;;4.75;;
70150;SDS011;57517;43.562;19.540;2023-05-07T08:56:10;6.60;;;5.03;;
70150;SDS011;57517;43.562;19.540;2023-05-07T08:58:37;6.35;;;4.95;;
70150;SDS011;57517;43.562;19.540;2023-05-07T09:01:07;9.73;;;7.18;;
70150;SDS011;57517;43.562;19.540;2023-05-07T09:03:36;8.05;;;6.80;;
70150;SDS011;57517;43.562;19.540;2023-05-07T09:06:03;10.40;;;6.75;;
70150;SDS011;57517;43.562;19.540;2023-05-07T09:08:29;10.45;;;7.07;;
70150;SDS011;57517;43.562;19.540;2023-05-07T09:10:54;7.65;;;5.30;;
70150;SDS011;57517;43.562;19.540;2023-05-07T09:13:20;6.47;;;5.25;;
70150;SDS011;57517;43.562;19.540;2023-05-07T09:15:46;8.38;;;6.68;;
70150;SDS011;57517;43.562;19.540;2023-05-07T09:18:12;9.25;;;7.13;;
70150;SDS011;57517;43.562;19.540;2023-05-07T09:20:38;6.32;;;5.40;;
70150;SDS011;57517;43.562;19.540;2023-05-07T09:23:07;6.95;;;5.38;;
70150;SDS011;57517;43.562;19.540;2023-05-07T09:25:34;8.77;;;6.43;;
70150;SDS011;57517;43.562;19.540;2023-05-07T09:28:01;5.95;;;5.25;;
70150;SDS011;57517;43.562;19.540;2023-05-07T09:30:28;8.27;;;5.47;;
70150;SDS011;57517;43.562;19.540;2023-05-07T09:33:00;6.00;;;4.70;;
70150;SDS011;57517;43.562;19.540;2023-05-07T09:35:27;6.10;;;5.43;;
70150;SDS011;57517;43.562;19.540;2023-05-07T09:37:53;5.13;;;4.57;;
70150;SDS011;57517;43.562;19.540;2023-05-07T09:40:28;5.60;;;4.85;;
70150;SDS011;57517;43.562;19.540;2023-05-07T09:42:54;9.23;;;6.35;;
70150;SDS011;57517;43.562;19.540;2023-05-07T09:45:27;6.03;;;5.30;;
70150;SDS011;57517;43.562;19.540;2023-05-07T09:47:54;6.80;;;5.63;;
70150;SDS011;57517;43.562;19.540;2023-05-07T09:50:27;5.63;;;4.70;;
70150;SDS011;57517;43.562;19.540;2023-05-07T09:52:55;6.20;;;5.50;;
70150;SDS011;57517;43.562;19.540;2023-05-07T09:55:22;6.43;;;5.30;;
70150;SDS011;57517;43.562;19.540;2023-05-07T09:57:52;8.65;;;5.88;;
70150;SDS011;57517;43.562;19.540;2023-05-07T10:00:19;7.60;;;5.93;;
70150;SDS011;57517;43.562;19.540;2023-05-07T10:02:46;8.05;;;6.95;;
70150;SDS011;57517;43.562;19.540;2023-05-07T10:05:16;11.73;;;8.13;;
70150;SDS011;57517;43.562;19.540;2023-05-07T10:07:43;14.93;;;10.07;;
70150;SDS011;57517;43.562;19.540;2023-05-07T10:10:09;18.83;;;11.63;;
70150;SDS011;57517;43.562;19.540;2023-05-07T10:12:36;11.25;;;8.50;;
70150;SDS011;57517;43.562;19.540;2023-05-07T10:15:09;9.15;;;6.68;;
70150;SDS011;57517;43.562;19.540;2023-05-07T10:17:37;7.60;;;5.53;;
70150;SDS011;57517;43.562;19.540;2023-05-07T10:20:04;7.40;;;5.18;;
70150;SDS011;57517;43.562;19.540;2023-05-07T10:22:37;8.90;;;6.88;;
70150;SDS011;57517;43.562;19.540;2023-05-07T10:25:18;9.45;;;7.47;;
70150;SDS011;57517;43.562;19.540;2023-05-07T10:27:48;6.15;;;5.00;;
70150;SDS011;57517;43.562;19.540;2023-05-07T10:32:53;6.90;;;5.03;;
70150;SDS011;57517;43.562;19.540;2023-05-07T10:35:24;5.07;;;4.20;;
70150;SDS011;57517;43.562;19.540;2023-05-07T10:37:52;7.60;;;4.85;;
70150;SDS011;57517;43.562;19.540;2023-05-07T10:40:19;7.65;;;4.28;;
70150;SDS011;57517;43.562;19.540;2023-05-07T10:45:25;6.10;;;4.40;;
70150;SDS011;57517;43.562;19.540;2023-05-07T10:50:40;5.40;;;4.50;;
70150;SDS011;57517;43.562;19.540;2023-05-07T10:55:42;7.78;;;4.95;;
70150;SDS011;57517;43.562;19.540;2023-05-07T10:58:28;9.15;;;6.45;;
70150;SDS011;57517;43.562;19.540;2023-05-07T11:00:57;5.53;;;4.35;;
70150;SDS011;57517;43.562;19.540;2023-05-07T11:03:27;8.43;;;5.30;;
70150;SDS011;57517;43.562;19.540;2023-05-07T11:11:17;6.10;;;3.53;;
70150;SDS011;57517;43.562;19.540;2023-05-07T11:13:45;6.18;;;3.88;;
70150;SDS011;57517;43.562;19.540;2023-05-07T11:16:21;6.20;;;4.00;;
70150;SDS011;57517;43.562;19.540;2023-05-07T11:18:49;5.28;;;4.15;;
70150;SDS011;57517;43.562;19.540;2023-05-07T11:21:31;5.60;;;3.90;;
70150;SDS011;57517;43.562;19.540;2023-05-07T11:23:58;4.75;;;3.72;;
70150;SDS011;57517;43.562;19.540;2023-05-07T11:26:25;6.07;;;4.75;;
70150;SDS011;57517;43.562;19.540;2023-05-07T11:28:51;5.65;;;4.40;;
70150;SDS011;57517;43.562;19.540;2023-05-07T11:31:22;5.57;;;4.18;;
70150;SDS011;57517;43.562;19.540;2023-05-07T11:33:52;7.38;;;5.55;;
70150;SDS011;57517;43.562;19.540;2023-05-07T11:36:19;7.63;;;5.65;;
70150;SDS011;57517;43.562;19.540;2023-05-07T11:38:47;6.22;;;4.65;;
70150;SDS011;57517;43.562;19.540;2023-05-07T11:41:13;8.00;;;4.82;;
70150;SDS011;57517;43.562;19.540;2023-05-07T11:43:52;6.47;;;4.57;;
70150;SDS011;57517;43.562;19.540;2023-05-07T11:46:21;8.90;;;6.55;;
70150;SDS011;57517;43.562;19.540;2023-05-07T11:48:47;5.20;;;4.70;;
70150;SDS011;57517;43.562;19.540;2023-05-07T11:51:12;5.47;;;4.28;;
70150;SDS011;57517;43.562;19.540;2023-05-07T11:53:43;5.68;;;4.30;;
70150;SDS011;57517;43.562;19.540;2023-05-07T11:56:10;5.70;;;4.50;;
70150;SDS011;57517;43.562;19.540;2023-05-07T11:58:37;6.10;;;4.10;;
70150;SDS011;57517;43.562;19.540;2023-05-07T12:01:03;8.07;;;6.10;;
70150;SDS011;57517;43.562;19.540;2023-05-07T12:03:29;5.97;;;4.45;;
70150;SDS011;57517;43.562;19.540;2023-05-07T12:05:55;5.53;;;4.30;;
70150;SDS011;57517;43.562;19.540;2023-05-07T12:08:21;4.88;;;3.97;;
70150;SDS011;57517;43.562;19.540;2023-05-07T12:10:48;5.30;;;4.22;;
70150;SDS011;57517;43.562;19.540;2023-05-07T12:13:15;5.28;;;3.65;;
70150;SDS011;57517;43.562;19.540;2023-05-07T12:15:42;4.40;;;3.75;;
70150;SDS011;57517;43.562;19.540;2023-05-07T12:18:08;4.20;;;3.60;;
70150;SDS011;57517;43.562;19.540;2023-05-07T12:20:35;8.48;;;5.57;;
70150;SDS011;57517;43.562;19.540;2023-05-07T12:23:02;5.18;;;3.95;;
70150;SDS011;57517;43.562;19.540;2023-05-07T12:25:31;7.22;;;5.40;;
70150;SDS011;57517;43.562;19.540;2023-05-07T12:28:02;6.80;;;4.18;;
70150;SDS011;57517;43.562;19.540;2023-05-07T12:30:31;5.20;;;4.13;;
70150;SDS011;57517;43.562;19.540;2023-05-07T12:32:57;5.00;;;3.80;;
70150;SDS011;57517;43.562;19.540;2023-05-07T12:35:27;4.57;;;3.53;;
70150;SDS011;57517;43.562;19.540;2023-05-07T12:37:57;4.97;;;3.80;;
70150;SDS011;57517;43.562;19.540;2023-05-07T12:40:33;6.45;;;4.32;;
70150;SDS011;57517;43.562;19.540;2023-05-07T12:43:15;6.05;;;3.83;;
70150;SDS011;57517;43.562;19.540;2023-05-07T12:45:46;6.35;;;4.18;;
70150;SDS011;57517;43.562;19.540;2023-05-07T12:48:13;5.25;;;3.83;;
70150;SDS011;57517;43.562;19.540;2023-05-07T12:50:39;5.38;;;4.50;;
70150;SDS011;57517;43.562;19.540;2023-05-07T12:53:05;5.03;;;4.20;;
70150;SDS011;57517;43.562;19.540;2023-05-07T12:58:15;4.75;;;4.22;;
70150;SDS011;57517;43.562;19.540;2023-05-07T13:00:42;10.15;;;5.78;;
70150;SDS011;57517;43.562;19.540;2023-05-07T13:03:08;12.13;;;7.80;;
70150;SDS011;57517;43.562;19.540;2023-05-07T13:05:35;8.20;;;5.82;;
70150;SDS011;57517;43.562;19.540;2023-05-07T13:08:01;7.93;;;6.68;;
70150;SDS011;57517;43.562;19.540;2023-05-07T13:10:27;9.75;;;7.05;;
70150;SDS011;57517;43.562;19.540;2023-05-07T13:12:53;7.18;;;5.75;;
70150;SDS011;57517;43.562;19.540;2023-05-07T13:15:19;8.82;;;6.75;;
70150;SDS011;57517;43.562;19.540;2023-05-07T13:17:44;11.82;;;8.77;;
70150;SDS011;57517;43.562;19.540;2023-05-07T13:20:10;18.75;;;10.13;;
70150;SDS011;57517;43.562;19.540;2023-05-07T13:22:38;22.23;;;17.05;;
70150;SDS011;57517;43.562;19.540;2023-05-07T13:25:04;11.60;;;7.85;;
70150;SDS011;57517;43.562;19.540;2023-05-07T13:27:30;8.25;;;5.93;;
70150;SDS011;57517;43.562;19.540;2023-05-07T13:29:56;8.60;;;6.40;;
70150;SDS011;57517;43.562;19.540;2023-05-07T13:32:22;8.90;;;6.28;;
70150;SDS011;57517;43.562;19.540;2023-05-07T13:34:48;7.72;;;5.40;;
70150;SDS011;57517;43.562;19.540;2023-05-07T13:37:14;6.10;;;4.82;;
70150;SDS011;57517;43.562;19.540;2023-05-07T13:39:40;8.68;;;5.40;;
70150;SDS011;57517;43.562;19.540;2023-05-07T13:42:06;8.73;;;6.45;;
70150;SDS011;57517;43.562;19.540;2023-05-07T13:44:32;7.07;;;5.88;;
70150;SDS011;57517;43.562;19.540;2023-05-07T13:46:58;6.03;;;4.70;;
70150;SDS011;57517;43.562;19.540;2023-05-07T13:49:24;6.65;;;4.68;;
70150;SDS011;57517;43.562;19.540;2023-05-07T13:51:50;6.05;;;4.20;;
70150;SDS011;57517;43.562;19.540;2023-05-07T13:54:15;6.13;;;4.78;;
70150;SDS011;57517;43.562;19.540;2023-05-07T13:56:41;6.72;;;4.22;;
70150;SDS011;57517;43.562;19.540;2023-05-07T13:59:07;7.15;;;5.63;;
70150;SDS011;57517;43.562;19.540;2023-05-07T14:01:33;7.80;;;6.32;;
70150;SDS011;57517;43.562;19.540;2023-05-07T14:03:59;8.77;;;5.80;;
70150;SDS011;57517;43.562;19.540;2023-05-07T14:06:25;7.13;;;5.55;;
70150;SDS011;57517;43.562;19.540;2023-05-07T14:08:51;6.72;;;5.20;;
70150;SDS011;57517;43.562;19.540;2023-05-07T14:11:17;7.05;;;5.63;;
70150;SDS011;57517;43.562;19.540;2023-05-07T14:13:42;5.90;;;4.88;;
70150;SDS011;57517;43.562;19.540;2023-05-07T14:16:08;8.93;;;6.75;;
70150;SDS011;57517;43.562;19.540;2023-05-07T14:18:34;8.05;;;6.68;;
70150;SDS011;57517;43.562;19.540;2023-05-07T14:21:02;7.18;;;5.00;;
70150;SDS011;57517;43.562;19.540;2023-05-07T14:23:28;6.53;;;5.18;;
70150;SDS011;57517;43.562;19.540;2023-05-07T14:25:53;6.30;;;5.13;;
70150;SDS011;57517;43.562;19.540;2023-05-07T14:28:19;6.18;;;4.80;;
70150;SDS011;57517;43.562;19.540;2023-05-07T14:30:45;7.90;;;5.20;;
70150;SDS011;57517;43.562;19.540;2023-05-07T14:33:11;6.88;;;4.55;;
70150;SDS011;57517;43.562;19.540;2023-05-07T14:35:37;6.13;;;4.75;;
70150;SDS011;57517;43.562;19.540;2023-05-07T14:38:03;5.15;;;4.28;;
70150;SDS011;57517;43.562;19.540;2023-05-07T14:40:29;6.10;;;4.47;;
70150;SDS011;57517;43.562;19.540;2023-05-07T14:42:54;6.97;;;4.57;;
70150;SDS011;57517;43.562;19.540;2023-05-07T14:45:22;7.93;;;4.30;;
70150;SDS011;57517;43.562;19.540;2023-05-07T14:47:48;6.35;;;4.07;;